Time;durP1;ratioP1;P1;durP2;ratioP2;P2;SDS_P1;SDS_P2;PMS_P1;PMS_P2;Temp;Humidity;BMP_temperature;BMP_pressure;BME280_temperature;BME280_humidity;BME280_pressure;Samples;Min_cycle;Max_cycle;Signal;HPM_P1;HPM_P2
2022/08/31 00:04:56;;;;;;;1.85;0.60;;;22.70;63.00;;;;;;5094172;28;20048;-62
2022/08/31 00:07:22;;;;;;;3.03;0.50;;;22.70;63.00;;;;;;5094544;28;20052;-62
2022/08/31 00:09:47;;;;;;;2.17;0.60;;;22.70;63.00;;;;;;5094246;28;20043;-62
2022/08/31 00:12:13;;;;;;;0.88;0.50;;;22.70;63.00;;;;;;5076540;28;20488;-62
2022/08/31 00:14:39;;;;;;;1.50;0.60;;;22.70;63.00;;;;;;5127636;27;20115;-61
2022/08/31 00:17:04;;;;;;;1.80;0.60;;;22.70;63.00;;;;;;5093999;28;20048;-62
2022/08/31 00:19:30;;;;;;;2.63;0.70;;;22.70;62.90;;;;;;5094405;28;20147;-62
2022/08/31 00:21:55;;;;;;;2.45;0.55;;;22.70;63.00;;;;;;5094476;28;20054;-61
2022/08/31 00:24:21;;;;;;;2.13;0.88;;;22.70;63.00;;;;;;5093402;28;20043;-62
2022/08/31 00:26:46;;;;;;;1.33;0.50;;;22.70;62.90;;;;;;5094568;28;20039;-61
2022/08/31 00:29:12;;;;;;;2.10;0.60;;;22.70;63.00;;;;;;5094706;28;20044;-61
2022/08/31 00:31:38;;;;;;;3.38;0.70;;;22.70;63.00;;;;;;5093283;28;20040;-61
2022/08/31 00:34:03;;;;;;;1.85;0.68;;;22.70;62.90;;;;;;5094118;28;20188;-62
2022/08/31 00:36:29;;;;;;;0.82;0.43;;;22.70;62.90;;;;;;5093404;28;20089;-62
2022/08/31 00:38:55;;;;;;;0.93;0.60;;;22.70;62.90;;;;;;5094185;28;20048;-61
2022/08/31 00:41:23;;;;;;;1.92;0.52;;;22.60;62.80;;;;;;5093975;28;20043;-62
2022/08/31 00:43:56;;;;;;;;;;;22.70;62.90;;;;;;5091972;28;20081;-61
2022/08/31 00:46:24;;;;;;;1.33;0.52;;;22.60;62.80;;;;;;5093727;28;19920;-60
2022/08/31 00:49:01;;;;;;;1.52;0.52;;;22.60;62.90;;;;;;5094193;28;20048;-61
2022/08/31 00:51:27;;;;;;;0.98;0.45;;;22.60;62.90;;;;;;5091745;28;20044;-62
2022/08/31 00:53:53;;;;;;;0.93;0.40;;;22.60;62.90;;;;;;5092706;28;20548;-62
2022/08/31 00:56:19;;;;;;;2.05;0.70;;;22.60;62.90;;;;;;5126272;27;20123;-63
2022/08/31 00:58:44;;;;;;;1.05;0.40;;;22.60;62.90;;;;;;5093333;28;20146;-62
2022/08/31 01:01:10;;;;;;;2.03;0.57;;;22.60;62.90;;;;;;5092531;28;20052;-62
2022/08/31 01:03:36;;;;;;;1.27;0.60;;;22.60;62.90;;;;;;5058803;28;20511;-62
2022/08/31 01:06:01;;;;;;;1.65;0.52;;;22.60;62.90;;;;;;5093200;28;20119;-62
2022/08/31 01:08:27;;;;;;;1.75;0.50;;;22.60;62.90;;;;;;5092525;28;20071;-62
2022/08/31 01:10:53;;;;;;;1.77;0.45;;;22.60;62.90;;;;;;5093943;28;20059;-62
2022/08/31 01:13:18;;;;;;;0.57;0.30;;;22.60;62.90;;;;;;5091359;28;20052;-62
2022/08/31 01:15:48;;;;;;;0.85;0.40;;;22.60;62.80;;;;;;5092140;28;20063;-62
2022/08/31 01:18:14;;;;;;;1.42;0.73;;;22.60;62.80;;;;;;5092345;28;20051;-62
2022/08/31 01:20:45;;;;;;;0.98;0.47;;;22.60;62.80;;;;;;5091829;28;20039;-62
2022/08/31 01:23:21;;;;;;;1.20;0.50;;;22.60;62.90;;;;;;5093408;28;20079;-61
2022/08/31 01:25:47;;;;;;;0.98;0.50;;;22.60;62.80;;;;;;5074437;28;20500;-62
2022/08/31 01:28:13;;;;;;;1.45;0.70;;;22.60;62.80;;;;;;5093123;28;20488;-62
2022/08/31 01:30:39;;;;;;;1.45;0.45;;;22.60;62.90;;;;;;5093301;28;20093;-62
2022/08/31 01:33:05;;;;;;;1.20;0.50;;;22.60;62.80;;;;;;5092259;28;20044;-62
2022/08/31 01:35:31;;;;;;;1.08;0.30;;;22.60;62.80;;;;;;5093195;28;20093;-62
2022/08/31 01:37:56;;;;;;;1.00;0.40;;;22.60;62.70;;;;;;5093474;28;20423;-62
2022/08/31 01:40:36;;;;;;;1.17;0.40;;;22.60;62.70;;;;;;5092127;28;20388;-62
2022/08/31 01:43:01;;;;;;;0.90;0.50;;;22.50;62.70;;;;;;5074948;28;20126;-62
2022/08/31 01:45:27;;;;;;;1.13;0.40;;;22.50;62.70;;;;;;5092649;28;20127;-62
2022/08/31 01:47:52;;;;;;;1.52;0.70;;;22.50;62.70;;;;;;5092333;28;20159;-62
2022/08/31 01:50:18;;;;;;;1.20;0.45;;;22.50;62.70;;;;;;5092861;28;20080;-61
2022/08/31 01:52:43;;;;;;;1.60;0.45;;;22.50;62.70;;;;;;5093139;28;20118;-62
2022/08/31 01:55:09;;;;;;;2.47;0.40;;;22.50;62.70;;;;;;5092044;28;20119;-62
2022/08/31 01:57:34;;;;;;;1.10;0.40;;;22.50;62.70;;;;;;5092183;28;20044;-62
2022/08/31 02:00:01;;;;;;;1.20;0.47;;;22.50;62.70;;;;;;5092657;28;20143;-62
2022/08/31 02:02:26;;;;;;;1.02;0.50;;;22.50;62.60;;;;;;5090116;28;20044;-62
2022/08/31 02:04:52;;;;;;;1.77;0.52;;;22.50;62.70;;;;;;5091536;28;20063;-62
2022/08/31 02:07:18;;;;;;;0.63;0.38;;;22.50;62.70;;;;;;5091868;28;20092;-62
2022/08/31 02:09:43;;;;;;;1.00;0.40;;;22.50;62.60;;;;;;5091920;28;20052;-62
2022/08/31 02:12:09;;;;;;;0.88;0.50;;;22.50;62.60;;;;;;5092504;28;20111;-62
2022/08/31 02:14:34;;;;;;;0.90;0.50;;;22.50;62.60;;;;;;5092471;28;20047;-62
2022/08/31 02:17:00;;;;;;;1.10;0.38;;;22.50;62.60;;;;;;5091887;28;20123;-61
2022/08/31 02:19:25;;;;;;;0.98;0.50;;;22.50;62.60;;;;;;5092638;28;20489;-62
2022/08/31 02:21:51;;;;;;;1.10;0.50;;;22.50;62.60;;;;;;5092271;28;20525;-62
2022/08/31 02:24:16;;;;;;;0.75;0.30;;;22.40;62.60;;;;;;5091467;28;20036;-62
2022/08/31 02:26:42;;;;;;;2.20;1.30;;;22.50;62.60;;;;;;5091418;28;20054;-61
2022/08/31 02:29:07;;;;;;;0.63;0.40;;;22.50;62.60;;;;;;5091939;28;20115;-62
2022/08/31 02:31:33;;;;;;;0.60;0.40;;;22.40;62.60;;;;;;5092093;28;20560;-62
2022/08/31 02:33:59;;;;;;;0.85;0.32;;;22.50;62.60;;;;;;5092329;28;20125;-61
2022/08/31 02:36:24;;;;;;;1.20;0.57;;;22.40;63.10;;;;;;5091582;28;20082;-61
2022/08/31 02:38:51;;;;;;;0.60;0.30;;;22.40;62.50;;;;;;5092597;28;20044;-62
2022/08/31 02:41:16;;;;;;;1.38;0.30;;;22.40;62.50;;;;;;5092382;28;20131;-62
2022/08/31 02:43:42;;;;;;;1.50;0.45;;;22.40;62.50;;;;;;5091354;28;20082;-62
2022/08/31 02:46:08;;;;;;;1.13;0.32;;;22.40;62.50;;;;;;5092348;28;20044;-61
2022/08/31 02:48:33;;;;;;;1.10;0.40;;;22.40;62.50;;;;;;5092230;28;20483;-62
2022/08/31 02:51:03;;;;;;;0.95;0.40;;;22.50;62.50;;;;;;5091775;28;20577;-62
2022/08/31 02:53:28;;;;;;;0.60;0.32;;;22.40;62.50;;;;;;5092308;28;20083;-62
2022/08/31 02:55:55;;;;;;;0.77;0.30;;;22.40;62.50;;;;;;5092218;28;20448;-62
2022/08/31 02:58:20;;;;;;;2.58;0.63;;;22.40;62.50;;;;;;5090991;28;20425;-61
2022/08/31 03:00:46;;;;;;;0.73;0.30;;;22.40;62.50;;;;;;5092353;28;20045;-61
2022/08/31 03:03:12;;;;;;;1.33;0.52;;;22.40;62.40;;;;;;5092158;28;20036;-62
2022/08/31 03:05:38;;;;;;;0.60;0.30;;;22.40;62.40;;;;;;5090931;28;20495;-62
2022/08/31 03:08:03;;;;;;;0.70;0.30;;;22.40;62.40;;;;;;5093560;28;20088;-61
2022/08/31 03:10:29;;;;;;;0.65;0.28;;;22.40;62.40;;;;;;5095794;28;20089;-61
2022/08/31 03:12:55;;;;;;;0.30;0.20;;;22.40;62.40;;;;;;5095370;28;20071;-62
2022/08/31 03:15:23;;;;;;;0.77;0.30;;;22.40;62.40;;;;;;5095647;28;20056;-62
2022/08/31 03:17:48;;;;;;;0.52;0.30;;;22.40;62.40;;;;;;5095931;28;20044;-62
2022/08/31 03:20:14;;;;;;;0.70;0.30;;;22.40;62.40;;;;;;5094711;28;20051;-62
2022/08/31 03:22:40;;;;;;;0.77;0.38;;;22.40;62.40;;;;;;5096015;28;20147;-62
2022/08/31 03:25:06;;;;;;;1.15;0.47;;;22.40;63.10;;;;;;5095955;28;20096;-62
2022/08/31 03:27:31;;;;;;;0.77;0.30;;;22.40;62.40;;;;;;5094398;28;20396;-62
2022/08/31 03:29:57;;;;;;;0.40;0.30;;;22.40;62.40;;;;;;5095596;28;20059;-62
2022/08/31 03:32:23;;;;;;;0.60;0.30;;;22.30;62.30;;;;;;5094856;28;20402;-61
2022/08/31 03:34:54;;;;;;;0.77;0.40;;;22.30;62.30;;;;;;5095488;28;20488;-62
2022/08/31 03:37:20;;;;;;;0.50;0.28;;;22.30;62.30;;;;;;5095556;28;20048;-62
2022/08/31 03:39:46;;;;;;;1.50;0.38;;;22.30;62.30;;;;;;5094773;28;20039;-62
2022/08/31 03:42:12;;;;;;;0.52;0.20;;;22.30;62.20;;;;;;5095375;28;20059;-62
2022/08/31 03:44:37;;;;;;;0.50;0.30;;;22.30;62.30;;;;;;5095300;28;20462;-62
2022/08/31 03:47:03;;;;;;;0.43;0.30;;;22.30;62.30;;;;;;5094785;28;20036;-62
2022/08/31 03:49:29;;;;;;;1.65;0.50;;;22.30;62.30;;;;;;5094086;28;20135;-62
2022/08/31 03:51:54;;;;;;;1.17;0.30;;;22.30;62.30;;;;;;5095362;28;20127;-62
2022/08/31 03:54:20;;;;;;;0.70;0.32;;;22.30;62.30;;;;;;5094275;28;20048;-62
2022/08/31 03:56:45;;;;;;;0.85;0.30;;;22.20;62.20;;;;;;5095254;28;20071;-62
2022/08/31 03:59:11;;;;;;;1.10;0.40;;;22.30;62.30;;;;;;5095034;28;20438;-62
2022/08/31 04:01:37;;;;;;;1.55;0.30;;;22.30;62.30;;;;;;5090889;28;20869;-62
2022/08/31 04:04:03;;;;;;;0.40;0.20;;;22.20;62.20;;;;;;5086584;28;20571;-62
2022/08/31 04:06:28;;;;;;;1.38;0.43;;;22.20;62.20;;;;;;5092589;28;20044;-62
2022/08/31 04:08:54;;;;;;;0.38;0.20;;;22.30;62.90;;;;;;5094336;28;20084;-62
2022/08/31 04:11:20;;;;;;;1.02;0.40;;;22.30;62.30;;;;;;5094380;28;20104;-62
2022/08/31 04:13:46;;;;;;;0.45;0.20;;;22.20;62.20;;;;;;5094663;28;20036;-62
2022/08/31 04:16:13;;;;;;;0.40;0.30;;;22.20;62.20;;;;;;5094258;28;20185;-62
2022/08/31 04:18:39;;;;;;;0.35;0.20;;;22.20;62.20;;;;;;5094898;28;20059;-61
2022/08/31 04:21:12;;;;;;;0.50;0.20;;;22.20;62.20;;;;;;5095024;28;20032;-62
2022/08/31 04:23:39;;;;;;;0.55;0.20;;;22.20;62.20;;;;;;5093709;28;20047;-62
2022/08/31 04:26:05;;;;;;;1.10;0.40;;;22.20;62.20;;;;;;5094555;28;20051;-61
2022/08/31 04:28:31;;;;;;;0.80;0.30;;;22.20;62.20;;;;;;5093527;28;20067;-62
2022/08/31 04:30:56;;;;;;;1.63;0.30;;;22.20;62.20;;;;;;5094418;28;20129;-62
2022/08/31 04:33:22;;;;;;;0.55;0.30;;;22.20;62.20;;;;;;5093884;28;20052;-62
2022/08/31 04:35:47;;;;;;;0.98;0.40;;;22.20;62.20;;;;;;5093827;28;20048;-62
2022/08/31 04:38:13;;;;;;;0.77;0.30;;;22.20;62.20;;;;;;5094325;28;20105;-62
2022/08/31 04:40:39;;;;;;;0.70;0.30;;;22.20;62.20;;;;;;5094397;28;20084;-62
2022/08/31 04:43:05;;;;;;;0.50;0.30;;;22.20;62.20;;;;;;5093380;28;20484;-62
2022/08/31 04:45:31;;;;;;;0.65;0.30;;;22.20;62.20;;;;;;5094117;28;20101;-62
2022/08/31 04:47:56;;;;;;;0.82;0.40;;;22.20;62.20;;;;;;5094262;28;20048;-62
2022/08/31 04:50:22;;;;;;;0.38;0.30;;;22.20;62.20;;;;;;5092900;28;20050;-62
2022/08/31 04:52:49;;;;;;;0.70;0.30;;;22.20;62.20;;;;;;5094001;28;20089;-62
2022/08/31 04:55:15;;;;;;;0.38;0.20;;;22.20;62.20;;;;;;5093644;28;20052;-62
2022/08/31 04:57:40;;;;;;;0.60;0.30;;;22.20;62.20;;;;;;5092986;28;20396;-62
2022/08/31 05:00:06;;;;;;;1.63;0.30;;;22.10;62.10;;;;;;5094191;28;20040;-62
2022/08/31 05:02:32;;;;;;;1.50;0.47;;;22.20;62.10;;;;;;5093806;28;20032;-62
2022/08/31 05:04:59;;;;;;;1.00;0.32;;;22.10;62.00;;;;;;5091885;28;20040;-62
2022/08/31 05:07:25;;;;;;;0.50;0.30;;;22.10;62.10;;;;;;5093634;28;20487;-61
2022/08/31 05:09:51;;;;;;;0.45;0.20;;;22.10;62.10;;;;;;5093966;28;20047;-62
2022/08/31 05:12:17;;;;;;;0.50;0.20;;;22.10;62.10;;;;;;5092540;28;20051;-62
2022/08/31 05:14:42;;;;;;;0.68;0.55;;;22.10;62.00;;;;;;5093540;28;20052;-62
2022/08/31 05:17:08;;;;;;;0.70;0.20;;;22.10;62.10;;;;;;5093340;28;20048;-62
2022/08/31 05:19:34;;;;;;;0.95;0.40;;;22.10;62.00;;;;;;5092434;28;20048;-61
2022/08/31 05:22:00;;;;;;;2.00;0.60;;;22.10;62.00;;;;;;5093443;28;20040;-61
2022/08/31 05:24:26;;;;;;;1.23;0.30;;;22.10;62.10;;;;;;5093343;28;20048;-62
2022/08/31 05:26:53;;;;;;;0.80;0.30;;;22.10;62.10;;;;;;5092451;28;20043;-62
2022/08/31 05:29:21;;;;;;;0.40;0.20;;;22.10;62.00;;;;;;5093274;28;20472;-62
2022/08/31 05:31:47;;;;;;;0.63;0.20;;;22.10;62.10;;;;;;5091989;28;20468;-62
2022/08/31 05:34:13;;;;;;;0.20;0.20;;;22.10;62.10;;;;;;5092972;28;20135;-62
2022/08/31 05:36:40;;;;;;;0.82;0.30;;;22.10;62.00;;;;;;5093115;28;20462;-62
2022/08/31 05:39:10;;;;;;;0.40;0.30;;;22.10;62.00;;;;;;5091276;28;20048;-61
2022/08/31 05:41:40;;;;;;;0.90;0.40;;;22.10;62.00;;;;;;5092850;28;20043;-64
2022/08/31 05:44:05;;;;;;;1.25;0.35;;;22.10;62.00;;;;;;5093333;28;20100;-61
2022/08/31 05:46:32;;;;;;;1.40;0.30;;;22.10;62.00;;;;;;5091908;28;20040;-60
2022/08/31 05:48:57;;;;;;;0.28;0.20;;;22.10;62.00;;;;;;5091836;28;20043;-61
2022/08/31 05:51:23;;;;;;;0.88;0.30;;;22.10;61.90;;;;;;5092690;28;20135;-61
2022/08/31 05:53:48;;;;;;;2.58;0.40;;;22.10;61.90;;;;;;5092379;28;20046;-61
2022/08/31 05:56:24;;;;;;;1.23;0.32;;;22.10;61.70;;;;;;5092563;28;20047;-61
2022/08/31 05:58:50;;;;;;;0.63;0.22;;;22.10;61.70;;;;;;5093015;28;20036;-61
2022/08/31 06:01:17;;;;;;;0.70;0.30;;;22.10;61.70;;;;;;5092108;28;20044;-61
2022/08/31 06:03:43;;;;;;;2.33;0.35;;;22.10;61.60;;;;;;5092790;28;20048;-61
2022/08/31 06:06:09;;;;;;;0.85;0.20;;;22.10;61.60;;;;;;5092985;28;20081;-61
2022/08/31 06:08:35;;;;;;;1.27;0.30;;;22.10;61.60;;;;;;5091733;28;20400;-61
2022/08/31 06:11:02;;;;;;;2.08;0.30;;;22.10;61.70;;;;;;5093046;28;20115;-60
2022/08/31 06:13:27;;;;;;;0.95;0.30;;;22.10;61.70;;;;;;5091356;28;20398;-61
2022/08/31 06:15:54;;;;;;;0.55;0.30;;;22.10;61.70;;;;;;5091339;28;20044;-72
2022/08/31 06:18:20;;;;;;;2.25;0.40;;;22.10;61.70;;;;;;5092463;28;20052;-61
2022/08/31 06:20:45;;;;;;;0.93;0.30;;;22.10;61.70;;;;;;5092812;28;20051;-62
2022/08/31 06:23:11;;;;;;;1.70;0.30;;;22.10;61.70;;;;;;5091618;28;20040;-62
2022/08/31 06:25:36;;;;;;;1.67;0.40;;;22.10;61.70;;;;;;5091228;28;20043;-62
2022/08/31 06:28:05;;;;;;;2.33;0.40;;;22.20;61.90;;;;;;5091980;28;20105;-62
2022/08/31 06:30:33;;;;;;;1.45;0.35;;;22.20;62.00;;;;;;5092271;28;20047;-62
2022/08/31 06:33:00;;;;;;;1.77;0.40;;;22.20;62.10;;;;;;5091200;28;20040;-62
2022/08/31 06:35:26;;;;;;;1.00;0.30;;;22.20;62.10;;;;;;5091681;28;20543;-62
2022/08/31 06:37:52;;;;;;;3.83;0.30;;;22.20;62.10;;;;;;5092612;28;20051;-62
2022/08/31 06:40:18;;;;;;;1.88;0.30;;;22.20;62.10;;;;;;5092019;28;20044;-62
2022/08/31 06:42:43;;;;;;;2.00;0.25;;;22.20;62.10;;;;;;5092740;28;20131;-62
2022/08/31 06:45:09;;;;;;;1.88;0.40;;;22.20;62.10;;;;;;5096685;28;20097;-62
2022/08/31 06:47:35;;;;;;;2.60;0.40;;;22.20;62.10;;;;;;5094692;28;20039;-62
2022/08/31 06:50:01;;;;;;;1.85;0.40;;;22.20;62.10;;;;;;5094461;28;20079;-62
2022/08/31 06:52:26;;;;;;;2.30;0.40;;;22.20;62.00;;;;;;5096410;28;20036;-63
2022/08/31 06:54:52;;;;;;;0.73;0.30;;;22.20;62.10;;;;;;5096320;28;20044;-62
2022/08/31 06:57:18;;;;;;;2.30;0.52;;;22.20;62.10;;;;;;5095310;28;20051;-61
2022/08/31 06:59:44;;;;;;;1.70;0.30;;;22.20;62.10;;;;;;5096063;28;20440;-63
2022/08/31 07:02:09;;;;;;;1.95;0.30;;;22.20;62.10;;;;;;5096275;28;20075;-63
2022/08/31 07:04:37;;;;;;;1.10;0.30;;;22.20;62.10;;;;;;5095097;28;20399;-63
2022/08/31 07:07:03;;;;;;;1.38;0.38;;;22.30;62.20;;;;;;5096365;28;20051;-62
2022/08/31 07:09:29;;;;;;;1.40;0.38;;;22.30;62.20;;;;;;5095745;28;20567;-63
2022/08/31 07:11:54;;;;;;;2.05;0.32;;;22.30;62.20;;;;;;5095376;28;20131;-63
2022/08/31 07:14:22;;;;;;;1.80;0.40;;;22.30;62.20;;;;;;5095984;28;20048;-62
2022/08/31 07:16:47;;;;;;;1.13;0.40;;;22.30;62.20;;;;;;5096212;28;20047;-62
2022/08/31 07:19:13;;;;;;;0.52;0.30;;;22.30;62.20;;;;;;5095108;28;20051;-61
2022/08/31 07:21:45;;;;;;;1.75;0.40;;;22.30;62.20;;;;;;5095615;28;20048;-61
2022/08/31 07:24:13;;;;;;;2.05;0.40;;;22.30;62.20;;;;;;5095874;28;20091;-62
2022/08/31 07:26:46;;;;;;;1.37;0.50;;;22.40;62.20;;;;;;5095347;28;20039;-61
2022/08/31 07:29:13;;;;;;;1.10;0.40;;;22.40;62.20;;;;;;5095921;28;20051;-62
2022/08/31 07:31:43;;;;;;;1.77;0.32;;;22.40;62.20;;;;;;5095059;28;20028;-62
2022/08/31 07:34:09;;;;;;;1.58;0.22;;;22.40;62.20;;;;;;5095223;28;20048;-61
2022/08/31 07:42:07;;;;;;;1.45;0.40;;;22.40;62.20;;;;;;5093624;28;20036;-62
2022/08/31 07:42:24;;;;;;;1.05;0.30;;;22.40;62.20;;;;;;5072442;28;20399;-61
2022/08/31 07:44:51;;;;;;;1.00;0.30;;;22.40;62.20;;;;;;5091278;28;20059;-62
2022/08/31 07:47:18;;;;;;;0.88;0.35;;;22.40;62.80;;;;;;5094543;28;20044;-61
2022/08/31 07:49:50;;;;;;;1.10;0.30;;;22.40;62.20;;;;;;5095500;28;20048;-62
2022/08/31 07:52:20;;;;;;;0.50;0.30;;;22.40;62.20;;;;;;5092045;28;20055;-61
2022/08/31 07:54:46;;;;;;;0.70;0.30;;;22.40;62.10;;;;;;5092866;28;20051;-61
2022/08/31 07:57:12;;;;;;;2.22;0.38;;;22.40;61.90;;;;;;5084508;28;20041;-61
2022/08/31 07:59:38;;;;;;;1.42;0.50;;;22.40;61.80;;;;;;5082686;28;20044;-60
2022/08/31 08:02:04;;;;;;;3.35;0.32;;;22.40;61.60;;;;;;5086309;28;20070;-61
2022/08/31 08:04:29;;;;;;;1.70;0.25;;;22.40;61.60;;;;;;5093679;28;20040;-61
2022/08/31 08:06:56;;;;;;;1.15;0.40;;;22.50;61.80;;;;;;5093808;28;20391;-61
2022/08/31 08:09:23;;;;;;;2.83;0.30;;;22.50;61.80;;;;;;5094211;28;20043;-62
2022/08/31 08:11:53;;;;;;;4.88;0.45;;;22.50;61.80;;;;;;5094764;28;20044;-62
2022/08/31 08:14:20;;;;;;;0.82;0.30;;;22.50;61.70;;;;;;5093926;28;20089;-62
2022/08/31 08:16:45;;;;;;;1.80;0.40;;;22.50;61.30;;;;;;5095158;28;20063;-61
2022/08/31 08:19:11;;;;;;;1.05;0.30;;;22.50;60.80;;;;;;5094755;28;20479;-61
2022/08/31 08:21:36;;;;;;;2.65;0.40;;;22.40;60.10;;;;;;5093991;28;20490;-61
2022/08/31 08:24:02;;;;;;;2.35;0.40;;;22.40;59.60;;;;;;5093908;28;20491;-63
2022/08/31 08:26:28;;;;;;;1.08;0.38;;;22.40;58.90;;;;;;5094587;28;20036;-63
2022/08/31 08:28:53;;;;;;;2.17;0.50;;;22.40;58.20;;;;;;5092495;28;20073;-63
2022/08/31 08:31:21;;;;;;;1.42;0.40;;;22.40;57.90;;;;;;5092971;28;20048;-65
2022/08/31 08:33:47;;;;;;;;;;;22.30;57.40;;;;;;5094127;28;20052;-63
2022/08/31 08:36:16;;;;;;;2.33;0.40;;;22.30;57.50;;;;;;5091299;28;19924;-62
2022/08/31 08:38:45;;;;;;;1.67;0.50;;;22.30;57.60;;;;;;5092101;28;20079;-63
2022/08/31 08:41:17;;;;;;;2.20;0.60;;;22.30;57.30;;;;;;5094563;28;20093;-63
2022/08/31 08:43:45;;;;;;;0.60;0.30;;;22.30;57.00;;;;;;5092225;28;20479;-63
2022/08/31 08:46:12;;;;;;;3.33;0.32;;;22.30;56.70;;;;;;5093097;28;20036;-63
2022/08/31 08:48:39;;;;;;;1.92;0.32;;;22.30;56.40;;;;;;5093106;28;20051;-63
2022/08/31 08:51:14;;;;;;;1.23;0.30;;;22.20;56.40;;;;;;5092398;28;20122;-63
2022/08/31 08:53:41;;;;;;;2.15;0.47;;;22.30;55.90;;;;;;5093206;28;20040;-63
2022/08/31 08:56:10;;;;;;;1.48;0.40;;;22.20;55.90;;;;;;5092211;28;20040;-63
2022/08/31 08:58:36;;;;;;;0.75;0.30;;;22.30;55.90;;;;;;5092633;28;20116;-62
2022/08/31 09:01:02;;;;;;;1.45;0.40;;;22.30;55.50;;;;;;5094096;28;20083;-63
2022/08/31 09:04:04;;;;;;;2.45;0.30;;;22.20;55.40;;;;;;5093119;28;20036;-63
2022/08/31 09:07:03;;;;;;;3.55;0.40;;;22.30;54.90;;;;;;5056305;28;20673;-63
2022/08/31 09:09:35;;;;;;;2.53;0.85;;;22.30;54.80;;;;;;5092009;28;20079;-63
2022/08/31 09:12:29;;;;;;;5.88;1.38;;;22.20;54.80;;;;;;5115471;27;20044;-63
2022/08/31 09:15:35;;;;;;;2.95;0.93;;;22.20;54.80;;;;;;5076492;28;20058;-63
2022/08/31 09:18:16;;;;;;;5.18;0.90;;;22.30;55.00;;;;;;5091367;28;20051;-63
2022/08/31 09:20:42;;;;;;;4.07;0.73;;;22.20;55.30;;;;;;5093495;28;20047;-63
2022/08/31 09:23:07;;;;;;;2.40;0.63;;;22.20;54.30;;;;;;5092950;28;20472;-63
2022/08/31 09:25:51;;;;;;;2.10;0.70;;;22.20;54.10;;;;;;5092103;28;20047;-65
2022/08/31 09:28:17;;;;;;;2.22;0.73;;;22.20;54.10;;;;;;5091467;28;20083;-64
2022/08/31 09:30:43;;;;;;;2.70;0.80;;;22.20;54.10;;;;;;5091954;28;20051;-63
2022/08/31 09:33:22;;;;;;;2.13;0.50;;;22.30;54.10;;;;;;5092717;28;20036;-63
2022/08/31 09:35:54;;;;;;;1.05;0.40;;;22.20;54.10;;;;;;5093706;28;20108;-63
2022/08/31 09:38:28;;;;;;;3.17;0.68;;;22.20;54.00;;;;;;5091913;28;20480;-63
2022/08/31 09:40:54;;;;;;;1.02;0.40;;;22.30;54.10;;;;;;5093496;28;20039;-63
2022/08/31 09:43:23;;;;;;;1.38;0.45;;;22.30;54.00;;;;;;5074929;28;20044;-63
2022/08/31 09:46:05;;;;;;;0.90;0.30;;;22.20;53.70;;;;;;5093028;28;20105;-63
2022/08/31 09:48:45;;;;;;;1.63;0.50;;;22.20;53.50;;;;;;5090314;28;20055;-63
2022/08/31 09:51:29;;;;;;;2.42;0.40;;;22.20;53.40;;;;;;5092717;28;20046;-63
2022/08/31 09:56:55;;;;;;;1.55;0.43;;;22.20;53.30;;;;;;5093299;28;20044;-63
2022/08/31 09:59:45;;;;;;;3.28;0.50;;;22.20;53.20;;;;;;5091654;28;20148;-64
2022/08/31 10:02:32;;;;;;;1.85;0.40;;;22.20;53.30;;;;;;5093025;28;20040;-63
2022/08/31 10:05:04;;;;;;;1.75;0.65;;;22.20;53.50;;;;;;5092037;28;20423;-63
2022/08/31 10:07:57;;;;;;;2.58;0.60;;;22.20;53.30;;;;;;5091745;28;20470;-63
2022/08/31 10:10:25;;;;;;;1.38;0.40;;;22.20;52.90;;;;;;5092918;28;20048;-63
2022/08/31 10:13:00;;;;;;;1.30;0.50;;;22.20;53.00;;;;;;5091836;28;20097;-63
2022/08/31 10:15:29;;;;;;;2.42;0.40;;;22.20;52.80;;;;;;5075148;28;20550;-63
2022/08/31 10:18:10;;;;;;;1.48;0.40;;;22.20;53.40;;;;;;5057769;28;20373;-63
2022/08/31 10:20:38;;;;;;;2.03;0.40;;;22.20;52.60;;;;;;5090395;28;20052;-63
2022/08/31 10:23:33;;;;;;;0.93;0.30;;;22.30;52.60;;;;;;5074922;28;20388;-63
2022/08/31 10:26:09;;;;;;;2.40;0.40;;;22.30;52.50;;;;;;5067629;28;20048;-63
2022/08/31 10:28:50;;;;;;;1.60;0.55;;;22.30;52.50;;;;;;5074528;28;20044;-62
2022/08/31 10:31:44;;;;;;;2.92;0.50;;;22.30;52.50;;;;;;5091341;28;20047;-63
2022/08/31 10:37:23;;;;;;;1.95;0.40;;;22.20;52.00;;;;;;5090510;28;20057;-62
2022/08/31 10:39:54;;;;;;;7.15;0.63;;;22.20;51.30;;;;;;5091487;28;20051;-63
2022/08/31 10:42:40;;;;;;;4.40;0.43;;;22.20;51.20;;;;;;5090468;28;20053;-62
2022/08/31 10:45:27;;;;;;;4.93;0.57;;;22.20;50.60;;;;;;5091385;28;20092;-63
2022/08/31 10:47:54;;;;;;;9.18;0.70;;;22.20;50.80;;;;;;5092565;28;20048;-63
2022/08/31 10:50:43;;;;;;;6.32;0.63;;;22.20;51.20;;;;;;5091501;28;20055;-63
2022/08/31 10:53:12;;;;;;;6.25;0.50;;;22.20;50.80;;;;;;5091638;28;20114;-63
2022/08/31 10:56:10;;;;;;;6.43;0.70;;;22.20;50.80;;;;;;5091459;28;20040;-63
2022/08/31 10:58:58;;;;;;;5.45;0.60;;;22.20;50.80;;;;;;5090859;28;20044;-63
2022/08/31 11:01:45;;;;;;;5.40;0.70;;;22.20;50.90;;;;;;5092383;28;20044;-63
2022/08/31 11:04:40;;;;;;;4.20;0.60;;;22.20;50.90;;;;;;5091690;28;20052;-62
2022/08/31 11:07:26;;;;;;;1.88;0.45;;;22.20;51.10;;;;;;5091218;28;20120;-63
2022/08/31 11:10:04;;;;;;;4.68;0.45;;;22.20;50.70;;;;;;5070163;28;20052;-61
2022/08/31 11:12:41;;;;;;;;;;;22.20;50.80;;;;;;5091377;28;20101;-61
2022/08/31 11:15:16;;;;;;;1.63;0.40;;;22.20;51.20;;;;;;5092272;28;20287;-62
2022/08/31 11:17:50;;;;;;;1.98;0.50;;;22.20;51.10;;;;;;5091798;28;20112;-61
2022/08/31 11:20:42;;;;;;;1.75;0.50;;;22.20;51.00;;;;;;5091832;28;20480;-61
2022/08/31 11:23:49;;;;;;;1.55;0.40;;;22.20;51.10;;;;;;5092276;28;20046;-61
2022/08/31 11:26:40;;;;;;;2.35;0.30;;;22.30;51.40;;;;;;5086255;28;20056;-61
2022/08/31 11:29:34;;;;;;;1.40;0.43;;;22.30;51.60;;;;;;5092049;28;20036;-60
2022/08/31 11:32:17;;;;;;;6.85;0.63;;;22.30;51.60;;;;;;5092889;28;20069;-61
2022/08/31 11:35:07;;;;;;;2.05;0.50;;;22.30;51.70;;;;;;5077148;28;20127;-61
2022/08/31 11:37:54;;;;;;;3.75;0.50;;;22.40;51.90;;;;;;5093103;28;20124;-61
2022/08/31 11:40:42;;;;;;;2.40;0.40;;;22.30;52.00;;;;;;5093308;28;20122;-62
2022/08/31 11:43:15;;;;;;;3.30;0.40;;;22.40;52.00;;;;;;5094380;28;20052;-61
2022/08/31 11:45:41;;;;;;;1.55;0.40;;;22.40;52.10;;;;;;5091336;28;20074;-62
2022/08/31 11:48:11;;;;;;;1.63;0.40;;;22.40;52.10;;;;;;5094028;28;20060;-60
2022/08/31 11:50:54;;;;;;;1.10;0.45;;;22.40;52.10;;;;;;5092276;28;20043;-61
2022/08/31 11:53:27;;;;;;;1.38;0.47;;;22.40;52.30;;;;;;5091048;28;20036;-61
2022/08/31 11:55:58;;;;;;;0.77;0.20;;;22.40;52.30;;;;;;5093884;28;20111;-61
2022/08/31 11:58:25;;;;;;;2.53;0.50;;;22.40;52.20;;;;;;5077008;28;20044;-61
2022/08/31 12:00:57;;;;;;;1.27;0.30;;;22.40;52.20;;;;;;5093136;28;20040;-61
2022/08/31 12:03:38;;;;;;;0.70;0.32;;;22.40;52.30;;;;;;5093756;28;20040;-61
2022/08/31 12:06:06;;;;;;;0.63;0.25;;;22.40;52.20;;;;;;5094517;28;20047;-61
2022/08/31 12:08:48;;;;;;;;;;;22.40;52.30;;;;;;5094000;28;20051;-61
2022/08/31 12:11:35;;;;;;;1.33;0.45;;;22.40;52.40;;;;;;5093997;28;20363;-61
2022/08/31 12:14:06;;;;;;;1.52;0.45;;;22.40;52.00;;;;;;5093379;28;20040;-63
2022/08/31 12:16:50;;;;;;;1.40;0.40;;;22.40;52.10;;;;;;5093487;28;20097;-63
2022/08/31 12:25:33;;;;;;;1.25;0.30;;;22.40;50.70;;;;;;5093972;28;20052;-63
2022/08/31 12:28:21;;;;;;;0.98;0.40;;;22.40;50.10;;;;;;5092940;28;20040;-61
2022/08/31 12:30:49;;;;;;;1.10;0.38;;;22.40;49.50;;;;;;5093611;28;20122;-60
2022/08/31 12:33:25;;;;;;;2.17;0.50;;;22.40;49.30;;;;;;5094408;28;20081;-61
2022/08/31 12:35:56;;;;;;;1.95;0.50;;;22.40;49.30;;;;;;5092697;28;20518;-61
2022/08/31 12:38:25;;;;;;;1.42;0.40;;;22.40;49.30;;;;;;5093152;28;20082;-61
2022/08/31 12:40:53;;;;;;;;;;;22.40;49.30;;;;;;5094086;28;20101;-60
2022/08/31 12:43:27;;;;;;;1.13;0.40;;;22.40;49.70;;;;;;5092839;28;19974;-61
2022/08/31 12:46:04;;;;;;;1.52;0.50;;;22.40;49.60;;;;;;5092884;28;20052;-61
2022/08/31 12:48:46;;;;;;;1.40;0.40;;;22.50;49.80;;;;;;5093646;28;20518;-61
2022/08/31 12:51:20;;;;;;;3.22;0.50;;;22.40;49.80;;;;;;5093539;28;20135;-61
2022/08/31 12:54:24;;;;;;;1.50;0.40;;;22.50;49.80;;;;;;5094568;28;20097;-61
2022/08/31 12:56:51;;;;;;;0.80;0.40;;;22.50;50.10;;;;;;5093382;28;20048;-61
2022/08/31 12:59:30;;;;;;;1.85;0.30;;;22.50;50.10;;;;;;5092820;28;20040;-61
2022/08/31 13:01:57;;;;;;;1.38;0.40;;;22.50;50.30;;;;;;5092238;28;20040;-62
2022/08/31 13:04:23;;;;;;;0.63;0.20;;;22.50;50.50;;;;;;5092311;28;20419;-61
2022/08/31 13:06:48;;;;;;;0.88;0.28;;;22.50;50.60;;;;;;5094194;28;20048;-61
2022/08/31 13:09:35;;;;;;;1.15;0.30;;;22.60;50.70;;;;;;5093125;28;20040;-61
2022/08/31 13:12:01;;;;;;;0.93;0.37;;;22.60;50.80;;;;;;5094007;28;20101;-61
2022/08/31 13:14:39;;;;;;;1.90;0.25;;;22.60;50.90;;;;;;5093626;28;20040;-62
2022/08/31 13:17:16;;;;;;;0.55;0.30;;;22.70;51.20;;;;;;5093094;28;20051;-62
2022/08/31 13:20:00;;;;;;;1.92;0.50;;;22.60;51.20;;;;;;5092909;28;20452;-61
2022/08/31 13:22:33;;;;;;;2.35;0.30;;;22.70;51.50;;;;;;5092317;28;20048;-61